ADDS METAR Data INFO
IDs: Format: Raw Decoded Include TAF

Data at: 1150 UTC 21 Jun 2018

KGJT 211053Z AUTO 12005KT 10SM CLR 17/02 A3011 RMK AO2 SLP125 T01670017
KGJT 210953Z AUTO 12010KT 10SM CLR 18/02 A3010 RMK AO2 SLP119 T01780022
KGJT 210853Z AUTO 11010KT 10SM CLR 18/02 A3009 RMK AO2 SLP121 T01780017 51003
KGJT 210753Z AUTO 18003KT 10SM CLR 20/01 A3009 RMK AO2 SLP118 T02000011
KGJT 210653Z AUTO 11004KT 10SM CLR 19/M01 A3009 RMK AO2 SLP118 T01891011 403170133
KGJT 210553Z AUTO 07005KT 10SM CLR 22/M01 A3008 RMK AO2 SLP117 T02171006 10317 20194 51008
KGJT 210453Z AUTO 00000KT 10SM CLR 22/M02 A3008 RMK AO2 SLP114 T02171022
KGJT 210353Z AUTO 04004KT 10SM CLR 23/M02 A3007 RMK AO2 SLP112 T02281022
KGJT 210253Z 00000KT 10SM CLR 26/M02 A3006 RMK AO2 SLP107 T02561022 53002
KGJT 210153Z 00000KT 10SM CLR 31/00 A3005 RMK AO2 SLP100 T03060000
KGJT 210053Z 26005KT 10SM CLR 31/01 A3005 RMK AO2 SLP104 T03110011
KGJT 202353Z 27008G17KT 10SM CLR 31/02 A3005 RMK AO2 SLP109 T03110022 10317 20261 56009
KGJT 202253Z 28010KT 10SM CLR 31/02 A3006 RMK AO2 SLP112 T03110022
KGJT 202153Z 28009KT 10SM CLR 31/03 A3006 RMK AO2 SLP110 T03110033
KGJT 202053Z 31011G20KT 10SM CLR 29/02 A3008 RMK AO2 SLP112 T02940022 56013
KGJT 201953Z 29012G20KT 10SM CLR 28/02 A3009 RMK AO2 SLP120 T02830022
KGJT 201853Z 28010KT 10SM CLR 28/03 A3011 RMK AO2 SLP126 T02830028
KGJT 201753Z 25008KT 10SM CLR 26/03 A3012 RMK AO2 SLP131 T02610033 10267 20133 58008
KGJT 201653Z VRB05KT 10SM CLR 26/03 A3013 RMK AO2 SLP135 T02560033
KGJT 201553Z 18007KT 10SM CLR 23/04 A3015 RMK AO2 SLP137 T02330039
KGJT 201453Z VRB05KT 10SM CLR 22/03 A3015 RMK AO2 SLP140 T02170033 51011
KGJT 201353Z VRB03KT 10SM CLR 21/03 A3014 RMK AO2 SLP134 T02060028
KGJT 201253Z 00000KT 10SM CLR 16/02 A3013 RMK AO2 SLP136 T01560022
KGJT 201153Z 00000KT 10SM CLR 13/01 A3011 RMK AO2 RAB26E36 SLP131 P0000 60000 T01330006 10217 20133 51006
KGJT 201053Z AUTO 00000KT 10SM CLR 14/01 A3010 RMK AO2 SLP128 T01390011
KGJT 200953Z AUTO 25005KT 10SM CLR 17/03 A3010 RMK AO2 SLP124 T01670033
KGJT 200853Z AUTO 01007KT 10SM CLR 20/02 A3009 RMK AO2 SLP115 T02000022 53007
KGJT 200753Z AUTO 03009KT 10SM CLR 19/02 A3008 RMK AO2 SLP113 T01890017
KGJT 200653Z AUTO 05006KT 10SM CLR 18/01 A3008 RMK AO2 SLP115 T01830006 403170133
KGJT 200553Z AUTO 32003KT 10SM CLR 22/01 A3007 RMK AO2 SLP108 T02170011 10306 20206 51026
KGJT 200453Z AUTO 33004KT 10SM CLR 21/01 A3005 RMK AO2 SLP105 T02060011
KGJT 200353Z 34007KT 10SM CLR 25/00 A3001 RMK AO2 SLP088 T02500000
KGJT 200253Z 29008KT 10SM CLR 26/M01 A2998 RMK AO2 SLP080 T02611011 53007
KGJT 200153Z 26009KT 10SM CLR 29/M02 A2996 RMK AO2 SLP075 T02891017
KGJT 200053Z 29009KT 10SM CLR 30/M03 A2995 RMK AO2 SLP071 T03001028
KGJT 192353Z 29008KT 10SM CLR 31/M03 A2995 RMK AO2 SLP074 T03061033 10317 20283 58005